<?xml version="1.0" encoding="UTF-8" standalone="no" ?>
<gpx xmlns="http://www.topografix.com/GPX/1/1" xmlns:xsi="http://www.w3.org/2001/XMLSchema-instance" xsi:schemaLocation="http://www.topografix.com/GPX/1/1 http://www.topografix.com/GPX/1/1/gpx.xsd" version="1.1" creator="VisuGPX - https://www.visugpx.com">
  <metadata>
    <name>6196277-boucle GR400</name>
  </metadata>
  <trk>
    <name><![CDATA[6196277-boucle GR400]]></name>
    <trkseg>
      <trkpt lat="45.10276" lon="2.59432">
        <ele>942</ele>
        <time>2021-06-01T12:57:52Z</time>
      </trkpt>
      <trkpt lat="45.10336" lon="2.59578">
        <ele>950</ele>
        <time>2021-06-01T12:59:27Z</time>
      </trkpt>
      <trkpt lat="45.10424" lon="2.59651">
        <ele>956</ele>
        <time>2021-06-01T13:00:49Z</time>
      </trkpt>
      <trkpt lat="45.10445" lon="2.59836">
        <ele>968</ele>
        <time>2021-06-01T13:02:35Z</time>
      </trkpt>
      <trkpt lat="45.10663" lon="2.60145">
        <ele>1002</ele>
        <time>2021-06-01T13:06:42Z</time>
      </trkpt>
      <trkpt lat="45.1076" lon="2.6023">
        <ele>1023</ele>
        <time>2021-06-01T13:08:13Z</time>
      </trkpt>
      <trkpt lat="45.10927" lon="2.60359">
        <ele>1052</ele>
        <time>2021-06-01T13:10:46Z</time>
      </trkpt>
      <trkpt lat="45.11081" lon="2.60587">
        <ele>1076</ele>
        <time>2021-06-01T13:13:44Z</time>
      </trkpt>
      <trkpt lat="45.1119" lon="2.61196">
        <ele>1128</ele>
        <time>2021-06-01T13:19:39Z</time>
      </trkpt>
      <trkpt lat="45.11287" lon="2.61445">
        <ele>1150</ele>
        <time>2021-06-01T13:22:20Z</time>
      </trkpt>
      <trkpt lat="45.11345" lon="2.6172">
        <ele>1171</ele>
        <time>2021-06-01T13:25:02Z</time>
      </trkpt>
      <trkpt lat="45.11339" lon="2.61964">
        <ele>1190</ele>
        <time>2021-06-01T13:27:20Z</time>
      </trkpt>
      <trkpt lat="45.11299" lon="2.6217">
        <ele>1212</ele>
        <time>2021-06-01T13:29:20Z</time>
      </trkpt>
      <trkpt lat="45.11445" lon="2.62574">
        <ele>1239</ele>
        <time>2021-06-01T13:33:37Z</time>
      </trkpt>
      <trkpt lat="45.11551" lon="2.62732">
        <ele>1270</ele>
        <time>2021-06-01T13:35:40Z</time>
      </trkpt>
      <trkpt lat="45.1163" lon="2.63054">
        <ele>1312</ele>
        <time>2021-06-01T13:38:53Z</time>
      </trkpt>
      <trkpt lat="45.11633" lon="2.63458">
        <ele>1359</ele>
        <time>2021-06-01T13:42:41Z</time>
      </trkpt>
      <trkpt lat="45.11587" lon="2.63604">
        <ele>1374</ele>
        <time>2021-06-01T13:44:11Z</time>
      </trkpt>
      <trkpt lat="45.11566" lon="2.63724">
        <ele>1397</ele>
        <time>2021-06-01T13:45:21Z</time>
      </trkpt>
      <trkpt lat="45.11651" lon="2.63947">
        <ele>1473</ele>
        <time>2021-06-01T13:47:44Z</time>
      </trkpt>
      <trkpt lat="45.11627" lon="2.6405">
        <ele>1498</ele>
        <time>2021-06-01T13:48:46Z</time>
      </trkpt>
      <trkpt lat="45.11402" lon="2.64153">
        <ele>1554</ele>
        <time>2021-06-01T13:51:55Z</time>
      </trkpt>
      <trkpt lat="45.11233" lon="2.63934">
        <ele>1534</ele>
        <time>2021-06-01T13:54:58Z</time>
      </trkpt>
      <trkpt lat="45.11054" lon="2.63805">
        <ele>1556</ele>
        <time>2021-06-01T13:57:39Z</time>
      </trkpt>
      <trkpt lat="45.10957" lon="2.6393">
        <ele>1556</ele>
        <time>2021-06-01T13:59:24Z</time>
      </trkpt>
      <trkpt lat="45.10875" lon="2.64423">
        <ele>1541</ele>
        <time>2021-06-01T14:04:10Z</time>
      </trkpt>
      <trkpt lat="45.10694" lon="2.64749">
        <ele>1556</ele>
        <time>2021-06-01T14:08:05Z</time>
      </trkpt>
      <trkpt lat="45.10509" lon="2.65157">
        <ele>1593</ele>
        <time>2021-06-01T14:12:39Z</time>
      </trkpt>
      <trkpt lat="45.10245" lon="2.65393">
        <ele>1631</ele>
        <time>2021-06-01T14:16:49Z</time>
      </trkpt>
      <trkpt lat="45.09976" lon="2.65127">
        <ele>1663</ele>
        <time>2021-06-01T14:21:11Z</time>
      </trkpt>
      <trkpt lat="45.09843" lon="2.64788">
        <ele>1665</ele>
        <time>2021-06-01T14:24:51Z</time>
      </trkpt>
      <trkpt lat="45.09655" lon="2.64488">
        <ele>1713</ele>
        <time>2021-06-01T14:28:37Z</time>
      </trkpt>
      <trkpt lat="45.09321" lon="2.64286">
        <ele>1691</ele>
        <time>2021-06-01T14:33:28Z</time>
      </trkpt>
      <trkpt lat="45.08973" lon="2.64376">
        <ele>1607</ele>
        <time>2021-06-01T14:38:11Z</time>
      </trkpt>
      <trkpt lat="45.0864" lon="2.64432">
        <ele>1531</ele>
        <time>2021-06-01T14:42:40Z</time>
      </trkpt>
      <trkpt lat="45.08452" lon="2.64367">
        <ele>1549</ele>
        <time>2021-06-01T14:45:15Z</time>
      </trkpt>
      <trkpt lat="45.08331" lon="2.63981">
        <ele>1573</ele>
        <time>2021-06-01T14:49:14Z</time>
      </trkpt>
      <trkpt lat="45.08167" lon="2.63556">
        <ele>1554</ele>
        <time>2021-06-01T14:53:47Z</time>
      </trkpt>
      <trkpt lat="45.08043" lon="2.63243">
        <ele>1552</ele>
        <time>2021-06-01T14:57:10Z</time>
      </trkpt>
      <trkpt lat="45.07882" lon="2.63011">
        <ele>1540</ele>
        <time>2021-06-01T15:00:14Z</time>
      </trkpt>
      <trkpt lat="45.07803" lon="2.62634">
        <ele>1496</ele>
        <time>2021-06-01T15:03:57Z</time>
      </trkpt>
      <trkpt lat="45.07634" lon="2.62277">
        <ele>1490</ele>
        <time>2021-06-01T15:08:00Z</time>
      </trkpt>
      <trkpt lat="45.07697" lon="2.61956">
        <ele>1442</ele>
        <time>2021-06-01T15:11:08Z</time>
      </trkpt>
      <trkpt lat="45.07758" lon="2.61818">
        <ele>1425</ele>
        <time>2021-06-01T15:12:40Z</time>
      </trkpt>
      <trkpt lat="45.076" lon="2.61299">
        <ele>1350</ele>
        <time>2021-06-01T15:18:00Z</time>
      </trkpt>
      <trkpt lat="45.0754" lon="2.6084">
        <ele>1351</ele>
        <time>2021-06-01T15:22:23Z</time>
      </trkpt>
      <trkpt lat="45.07476" lon="2.6069">
        <ele>1345</ele>
        <time>2021-06-01T15:24:03Z</time>
      </trkpt>
      <trkpt lat="45.07491" lon="2.6026">
        <ele>1365</ele>
        <time>2021-06-01T15:28:06Z</time>
      </trkpt>
      <trkpt lat="45.07482" lon="2.59943">
        <ele>1393</ele>
        <time>2021-06-01T15:31:05Z</time>
      </trkpt>
      <trkpt lat="45.07464" lon="2.59698">
        <ele>1385</ele>
        <time>2021-06-01T15:33:25Z</time>
      </trkpt>
      <trkpt lat="45.07355" lon="2.59488">
        <ele>1372</ele>
        <time>2021-06-01T15:35:52Z</time>
      </trkpt>
      <trkpt lat="45.0714" lon="2.59471">
        <ele>1380</ele>
        <time>2021-06-01T15:38:44Z</time>
      </trkpt>
      <trkpt lat="45.07073" lon="2.59346">
        <ele>1376</ele>
        <time>2021-06-01T15:40:13Z</time>
      </trkpt>
      <trkpt lat="45.06858" lon="2.59419">
        <ele>1358</ele>
        <time>2021-06-01T15:43:10Z</time>
      </trkpt>
      <trkpt lat="45.06685" lon="2.59299">
        <ele>1321</ele>
        <time>2021-06-01T15:45:44Z</time>
      </trkpt>
      <trkpt lat="45.06749" lon="2.59501">
        <ele>1315</ele>
        <time>2021-06-01T15:47:50Z</time>
      </trkpt>
      <trkpt lat="45.06864" lon="2.59587">
        <ele>1325</ele>
        <time>2021-06-01T15:49:34Z</time>
      </trkpt>
      <trkpt lat="45.06903" lon="2.5969">
        <ele>1316</ele>
        <time>2021-06-01T15:50:40Z</time>
      </trkpt>
      <trkpt lat="45.06688" lon="2.59634">
        <ele>1272</ele>
        <time>2021-06-01T15:53:35Z</time>
      </trkpt>
      <trkpt lat="45.06564" lon="2.59797">
        <ele>1202</ele>
        <time>2021-06-01T15:55:50Z</time>
      </trkpt>
      <trkpt lat="45.06537" lon="2.60003">
        <ele>1158</ele>
        <time>2021-06-01T15:57:49Z</time>
      </trkpt>
      <trkpt lat="45.06458" lon="2.60166">
        <ele>1122</ele>
        <time>2021-06-01T15:59:41Z</time>
      </trkpt>
      <trkpt lat="45.06391" lon="2.60389">
        <ele>1102</ele>
        <time>2021-06-01T16:01:58Z</time>
      </trkpt>
      <trkpt lat="45.06127" lon="2.60685">
        <ele>1019</ele>
        <time>2021-06-01T16:06:27Z</time>
      </trkpt>
      <trkpt lat="45.06321" lon="2.60655">
        <ele>1030</ele>
        <time>2021-06-01T16:09:04Z</time>
      </trkpt>
      <trkpt lat="45.06421" lon="2.60737">
        <ele>1016</ele>
        <time>2021-06-01T16:10:36Z</time>
      </trkpt>
      <trkpt lat="45.06561" lon="2.60715">
        <ele>1040</ele>
        <time>2021-06-01T16:12:29Z</time>
      </trkpt>
      <trkpt lat="45.06664" lon="2.60754">
        <ele>1054</ele>
        <time>2021-06-01T16:13:54Z</time>
      </trkpt>
      <trkpt lat="45.06831" lon="2.60698">
        <ele>1100</ele>
        <time>2021-06-01T16:16:12Z</time>
      </trkpt>
      <trkpt lat="45.06855" lon="2.60767">
        <ele>1084</ele>
        <time>2021-06-01T16:16:55Z</time>
      </trkpt>
      <trkpt lat="45.06955" lon="2.60801">
        <ele>1109</ele>
        <time>2021-06-01T16:18:18Z</time>
      </trkpt>
      <trkpt lat="45.06955" lon="2.60913">
        <ele>1093</ele>
        <time>2021-06-01T16:19:21Z</time>
      </trkpt>
      <trkpt lat="45.06994" lon="2.61119">
        <ele>1094</ele>
        <time>2021-06-01T16:21:21Z</time>
      </trkpt>
      <trkpt lat="45.06876" lon="2.61106">
        <ele>1062</ele>
        <time>2021-06-01T16:22:56Z</time>
      </trkpt>
      <trkpt lat="45.06861" lon="2.61217">
        <ele>1057</ele>
        <time>2021-06-01T16:24:00Z</time>
      </trkpt>
      <trkpt lat="45.06828" lon="2.61303">
        <ele>1054</ele>
        <time>2021-06-01T16:24:55Z</time>
      </trkpt>
      <trkpt lat="45.06697" lon="2.61153">
        <ele>1031</ele>
        <time>2021-06-01T16:27:10Z</time>
      </trkpt>
      <trkpt lat="45.06546" lon="2.61166">
        <ele>1009</ele>
        <time>2021-06-01T16:29:11Z</time>
      </trkpt>
      <trkpt lat="45.06509" lon="2.6126">
        <ele>1012</ele>
        <time>2021-06-01T16:30:12Z</time>
      </trkpt>
      <trkpt lat="45.06376" lon="2.61252">
        <ele>988</ele>
        <time>2021-06-01T16:31:59Z</time>
      </trkpt>
      <trkpt lat="45.06282" lon="2.61376">
        <ele>991</ele>
        <time>2021-06-01T16:33:42Z</time>
      </trkpt>
      <trkpt lat="45.0627" lon="2.61591">
        <ele>1002</ele>
        <time>2021-06-01T16:35:44Z</time>
      </trkpt>
      <trkpt lat="45.06352" lon="2.61685">
        <ele>996</ele>
        <time>2021-06-01T16:37:08Z</time>
      </trkpt>
      <trkpt lat="45.064" lon="2.619">
        <ele>990</ele>
        <time>2021-06-01T16:39:16Z</time>
      </trkpt>
      <trkpt lat="45.06358" lon="2.62003">
        <ele>974</ele>
        <time>2021-06-01T16:40:23Z</time>
      </trkpt>
      <trkpt lat="45.06409" lon="2.62076">
        <ele>984</ele>
        <time>2021-06-01T16:41:21Z</time>
      </trkpt>
      <trkpt lat="45.06394" lon="2.62217">
        <ele>967</ele>
        <time>2021-06-01T16:42:42Z</time>
      </trkpt>
      <trkpt lat="45.06449" lon="2.62342">
        <ele>974</ele>
        <time>2021-06-01T16:44:05Z</time>
      </trkpt>
      <trkpt lat="45.06579" lon="2.62449">
        <ele>984</ele>
        <time>2021-06-01T16:46:05Z</time>
      </trkpt>
      <trkpt lat="45.06537" lon="2.62561">
        <ele>978</ele>
        <time>2021-06-01T16:47:17Z</time>
      </trkpt>
      <trkpt lat="45.06473" lon="2.62612">
        <ele>965</ele>
        <time>2021-06-01T16:48:16Z</time>
      </trkpt>
      <trkpt lat="45.06452" lon="2.62707">
        <ele>961</ele>
        <time>2021-06-01T16:49:12Z</time>
      </trkpt>
      <trkpt lat="45.06561" lon="2.62964">
        <ele>952</ele>
        <time>2021-06-01T16:52:02Z</time>
      </trkpt>
      <trkpt lat="45.06476" lon="2.6308">
        <ele>927</ele>
        <time>2021-06-01T16:53:36Z</time>
      </trkpt>
      <trkpt lat="45.06433" lon="2.63479">
        <ele>902</ele>
        <time>2021-06-01T16:57:25Z</time>
      </trkpt>
      <trkpt lat="45.06391" lon="2.63724">
        <ele>894</ele>
        <time>2021-06-01T16:59:47Z</time>
      </trkpt>
      <trkpt lat="45.06461" lon="2.63797">
        <ele>900</ele>
        <time>2021-06-01T17:00:57Z</time>
      </trkpt>
      <trkpt lat="45.06427" lon="2.63977">
        <ele>899</ele>
        <time>2021-06-01T17:02:42Z</time>
      </trkpt>
      <trkpt lat="45.06464" lon="2.64114">
        <ele>905</ele>
        <time>2021-06-01T17:04:05Z</time>
      </trkpt>
      <trkpt lat="45.06552" lon="2.64153">
        <ele>916</ele>
        <time>2021-06-01T17:05:19Z</time>
      </trkpt>
      <trkpt lat="45.06594" lon="2.64359">
        <ele>922</ele>
        <time>2021-06-01T17:07:20Z</time>
      </trkpt>
      <trkpt lat="45.06673" lon="2.64479">
        <ele>932</ele>
        <time>2021-06-01T17:08:53Z</time>
      </trkpt>
      <trkpt lat="45.06746" lon="2.64797">
        <ele>923</ele>
        <time>2021-06-01T17:12:02Z</time>
      </trkpt>
      <trkpt lat="45.06812" lon="2.6514">
        <ele>928</ele>
        <time>2021-06-01T17:15:23Z</time>
      </trkpt>
      <trkpt lat="45.06818" lon="2.65385">
        <ele>928</ele>
        <time>2021-06-01T17:17:42Z</time>
      </trkpt>
      <trkpt lat="45.0697" lon="2.6556">
        <ele>939</ele>
        <time>2021-06-01T17:20:19Z</time>
      </trkpt>
      <trkpt lat="45.06982" lon="2.65689">
        <ele>927</ele>
        <time>2021-06-01T17:21:32Z</time>
      </trkpt>
      <trkpt lat="45.06931" lon="2.65775">
        <ele>928</ele>
        <time>2021-06-01T17:22:36Z</time>
      </trkpt>
      <trkpt lat="45.07037" lon="2.6608">
        <ele>933</ele>
        <time>2021-06-01T17:25:48Z</time>
      </trkpt>
      <trkpt lat="45.06997" lon="2.66153">
        <ele>944</ele>
        <time>2021-06-01T17:26:40Z</time>
      </trkpt>
      <trkpt lat="45.07058" lon="2.66333">
        <ele>960</ele>
        <time>2021-06-01T17:28:33Z</time>
      </trkpt>
      <trkpt lat="45.07161" lon="2.66466">
        <ele>979</ele>
        <time>2021-06-01T17:30:25Z</time>
      </trkpt>
      <trkpt lat="45.0717" lon="2.66625">
        <ele>1008</ele>
        <time>2021-06-01T17:31:55Z</time>
      </trkpt>
      <trkpt lat="45.07237" lon="2.66702">
        <ele>1011</ele>
        <time>2021-06-01T17:33:04Z</time>
      </trkpt>
      <trkpt lat="45.073" lon="2.66882">
        <ele>1035</ele>
        <time>2021-06-01T17:34:57Z</time>
      </trkpt>
      <trkpt lat="45.07303" lon="2.67032">
        <ele>1043</ele>
        <time>2021-06-01T17:36:22Z</time>
      </trkpt>
      <trkpt lat="45.07273" lon="2.67161">
        <ele>1060</ele>
        <time>2021-06-01T17:37:39Z</time>
      </trkpt>
      <trkpt lat="45.0717" lon="2.67144">
        <ele>1084</ele>
        <time>2021-06-01T17:39:02Z</time>
      </trkpt>
      <trkpt lat="45.07085" lon="2.67157">
        <ele>1103</ele>
        <time>2021-06-01T17:40:11Z</time>
      </trkpt>
      <trkpt lat="45.06988" lon="2.67114">
        <ele>1130</ele>
        <time>2021-06-01T17:41:32Z</time>
      </trkpt>
      <trkpt lat="45.06982" lon="2.66985">
        <ele>1117</ele>
        <time>2021-06-01T17:42:45Z</time>
      </trkpt>
      <trkpt lat="45.06746" lon="2.66908">
        <ele>1142</ele>
        <time>2021-06-01T17:45:59Z</time>
      </trkpt>
      <trkpt lat="45.06597" lon="2.66934">
        <ele>1175</ele>
        <time>2021-06-01T17:47:59Z</time>
      </trkpt>
      <trkpt lat="45.06449" lon="2.66904">
        <ele>1192</ele>
        <time>2021-06-01T17:49:59Z</time>
      </trkpt>
      <trkpt lat="45.0637" lon="2.66908">
        <ele>1202</ele>
        <time>2021-06-01T17:51:02Z</time>
      </trkpt>
      <trkpt lat="45.06349" lon="2.67093">
        <ele>1240</ele>
        <time>2021-06-01T17:52:48Z</time>
      </trkpt>
      <trkpt lat="45.06467" lon="2.67174">
        <ele>1280</ele>
        <time>2021-06-01T17:54:33Z</time>
      </trkpt>
      <trkpt lat="45.06573" lon="2.67183">
        <ele>1266</ele>
        <time>2021-06-01T17:55:58Z</time>
      </trkpt>
      <trkpt lat="45.06676" lon="2.67294">
        <ele>1289</ele>
        <time>2021-06-01T17:57:42Z</time>
      </trkpt>
      <trkpt lat="45.06418" lon="2.67243">
        <ele>1311</ele>
        <time>2021-06-01T18:01:10Z</time>
      </trkpt>
      <trkpt lat="45.06312" lon="2.67376">
        <ele>1327</ele>
        <time>2021-06-01T18:03:04Z</time>
      </trkpt>
      <trkpt lat="45.06176" lon="2.67513">
        <ele>1331</ele>
        <time>2021-06-01T18:05:17Z</time>
      </trkpt>
      <trkpt lat="45.06049" lon="2.67539">
        <ele>1326</ele>
        <time>2021-06-01T18:07:00Z</time>
      </trkpt>
      <trkpt lat="45.06018" lon="2.67659">
        <ele>1342</ele>
        <time>2021-06-01T18:08:12Z</time>
      </trkpt>
      <trkpt lat="45.06103" lon="2.67814">
        <ele>1347</ele>
        <time>2021-06-01T18:10:03Z</time>
      </trkpt>
      <trkpt lat="45.06179" lon="2.67878">
        <ele>1357</ele>
        <time>2021-06-01T18:11:14Z</time>
      </trkpt>
      <trkpt lat="45.06246" lon="2.6808">
        <ele>1360</ele>
        <time>2021-06-01T18:13:20Z</time>
      </trkpt>
      <trkpt lat="45.0633" lon="2.68307">
        <ele>1353</ele>
        <time>2021-06-01T18:15:45Z</time>
      </trkpt>
      <trkpt lat="45.06373" lon="2.68547">
        <ele>1354</ele>
        <time>2021-06-01T18:18:05Z</time>
      </trkpt>
      <trkpt lat="45.06391" lon="2.68753">
        <ele>1366</ele>
        <time>2021-06-01T18:20:03Z</time>
      </trkpt>
      <trkpt lat="45.06449" lon="2.68938">
        <ele>1353</ele>
        <time>2021-06-01T18:21:57Z</time>
      </trkpt>
      <trkpt lat="45.06543" lon="2.68981">
        <ele>1337</ele>
        <time>2021-06-01T18:23:16Z</time>
      </trkpt>
      <trkpt lat="45.06609" lon="2.6908">
        <ele>1330</ele>
        <time>2021-06-01T18:24:33Z</time>
      </trkpt>
      <trkpt lat="45.0654" lon="2.69187">
        <ele>1363</ele>
        <time>2021-06-01T18:25:55Z</time>
      </trkpt>
      <trkpt lat="45.06618" lon="2.69213">
        <ele>1341</ele>
        <time>2021-06-01T18:26:59Z</time>
      </trkpt>
      <trkpt lat="45.06688" lon="2.6932">
        <ele>1356</ele>
        <time>2021-06-01T18:28:22Z</time>
      </trkpt>
      <trkpt lat="45.06794" lon="2.69449">
        <ele>1350</ele>
        <time>2021-06-01T18:30:14Z</time>
      </trkpt>
      <trkpt lat="45.06888" lon="2.69706">
        <ele>1367</ele>
        <time>2021-06-01T18:32:58Z</time>
      </trkpt>
      <trkpt lat="45.07018" lon="2.698">
        <ele>1362</ele>
        <time>2021-06-01T18:34:54Z</time>
      </trkpt>
      <trkpt lat="45.07058" lon="2.69951">
        <ele>1350</ele>
        <time>2021-06-01T18:36:26Z</time>
      </trkpt>
      <trkpt lat="45.07158" lon="2.70002">
        <ele>1363</ele>
        <time>2021-06-01T18:37:51Z</time>
      </trkpt>
      <trkpt lat="45.0724" lon="2.70041">
        <ele>1352</ele>
        <time>2021-06-01T18:39:00Z</time>
      </trkpt>
      <trkpt lat="45.07379" lon="2.70079">
        <ele>1365</ele>
        <time>2021-06-01T18:40:53Z</time>
      </trkpt>
      <trkpt lat="45.07473" lon="2.70118">
        <ele>1386</ele>
        <time>2021-06-01T18:42:12Z</time>
      </trkpt>
      <trkpt lat="45.07491" lon="2.69981">
        <ele>1398</ele>
        <time>2021-06-01T18:43:31Z</time>
      </trkpt>
      <trkpt lat="45.07585" lon="2.70118">
        <ele>1416</ele>
        <time>2021-06-01T18:45:19Z</time>
      </trkpt>
      <trkpt lat="45.07606" lon="2.70234">
        <ele>1414</ele>
        <time>2021-06-01T18:46:26Z</time>
      </trkpt>
      <trkpt lat="45.07694" lon="2.70225">
        <ele>1428</ele>
        <time>2021-06-01T18:47:37Z</time>
      </trkpt>
      <trkpt lat="45.0787" lon="2.70208">
        <ele>1432</ele>
        <time>2021-06-01T18:49:58Z</time>
      </trkpt>
      <trkpt lat="45.08016" lon="2.70225">
        <ele>1446</ele>
        <time>2021-06-01T18:51:55Z</time>
      </trkpt>
      <trkpt lat="45.08152" lon="2.70234">
        <ele>1442</ele>
        <time>2021-06-01T18:53:44Z</time>
      </trkpt>
      <trkpt lat="45.08252" lon="2.70367">
        <ele>1474</ele>
        <time>2021-06-01T18:55:34Z</time>
      </trkpt>
      <trkpt lat="45.08291" lon="2.70539">
        <ele>1501</ele>
        <time>2021-06-01T18:57:16Z</time>
      </trkpt>
      <trkpt lat="45.08264" lon="2.70775">
        <ele>1544</ele>
        <time>2021-06-01T18:59:32Z</time>
      </trkpt>
      <trkpt lat="45.08237" lon="2.70929">
        <ele>1565</ele>
        <time>2021-06-01T19:01:01Z</time>
      </trkpt>
      <trkpt lat="45.0837" lon="2.71049">
        <ele>1562</ele>
        <time>2021-06-01T19:03:08Z</time>
      </trkpt>
      <trkpt lat="45.085" lon="2.71178">
        <ele>1557</ele>
        <time>2021-06-01T19:05:15Z</time>
      </trkpt>
      <trkpt lat="45.08658" lon="2.7126">
        <ele>1552</ele>
        <time>2021-06-01T19:07:29Z</time>
      </trkpt>
      <trkpt lat="45.0874" lon="2.71238">
        <ele>1542</ele>
        <time>2021-06-01T19:08:36Z</time>
      </trkpt>
      <trkpt lat="45.08925" lon="2.7153">
        <ele>1532</ele>
        <time>2021-06-01T19:12:18Z</time>
      </trkpt>
      <trkpt lat="45.09058" lon="2.71702">
        <ele>1523</ele>
        <time>2021-06-01T19:14:42Z</time>
      </trkpt>
      <trkpt lat="45.09231" lon="2.71663">
        <ele>1532</ele>
        <time>2021-06-01T19:17:02Z</time>
      </trkpt>
      <trkpt lat="45.09309" lon="2.71749">
        <ele>1536</ele>
        <time>2021-06-01T19:18:22Z</time>
      </trkpt>
      <trkpt lat="45.09594" lon="2.71787">
        <ele>1539</ele>
        <time>2021-06-01T19:22:11Z</time>
      </trkpt>
      <trkpt lat="45.0997" lon="2.71654">
        <ele>1537</ele>
        <time>2021-06-01T19:27:21Z</time>
      </trkpt>
      <trkpt lat="45.10406" lon="2.71594">
        <ele>1523</ele>
        <time>2021-06-01T19:33:12Z</time>
      </trkpt>
      <trkpt lat="45.10464" lon="2.71337">
        <ele>1549</ele>
        <time>2021-06-01T19:35:44Z</time>
      </trkpt>
      <trkpt lat="45.10554" lon="2.71255">
        <ele>1576</ele>
        <time>2021-06-01T19:37:10Z</time>
      </trkpt>
      <trkpt lat="45.10669" lon="2.71075">
        <ele>1589</ele>
        <time>2021-06-01T19:39:27Z</time>
      </trkpt>
      <trkpt lat="45.10691" lon="2.70848">
        <ele>1594</ele>
        <time>2021-06-01T19:41:37Z</time>
      </trkpt>
      <trkpt lat="45.10651" lon="2.70663">
        <ele>1601</ele>
        <time>2021-06-01T19:43:26Z</time>
      </trkpt>
      <trkpt lat="45.10579" lon="2.70599">
        <ele>1590</ele>
        <time>2021-06-01T19:44:34Z</time>
      </trkpt>
      <trkpt lat="45.10594" lon="2.70487">
        <ele>1623</ele>
        <time>2021-06-01T19:45:38Z</time>
      </trkpt>
      <trkpt lat="45.1053" lon="2.7026">
        <ele>1614</ele>
        <time>2021-06-01T19:47:57Z</time>
      </trkpt>
      <trkpt lat="45.10518" lon="2.70024">
        <ele>1623</ele>
        <time>2021-06-01T19:50:10Z</time>
      </trkpt>
      <trkpt lat="45.10412" lon="2.69921">
        <ele>1630</ele>
        <time>2021-06-01T19:51:53Z</time>
      </trkpt>
      <trkpt lat="45.10379" lon="2.6965">
        <ele>1619</ele>
        <time>2021-06-01T19:54:29Z</time>
      </trkpt>
      <trkpt lat="45.10297" lon="2.69457">
        <ele>1638</ele>
        <time>2021-06-01T19:56:36Z</time>
      </trkpt>
      <trkpt lat="45.10227" lon="2.69311">
        <ele>1641</ele>
        <time>2021-06-01T19:58:16Z</time>
      </trkpt>
      <trkpt lat="45.10297" lon="2.69067">
        <ele>1642</ele>
        <time>2021-06-01T20:00:45Z</time>
      </trkpt>
      <trkpt lat="45.10373" lon="2.68805">
        <ele>1640</ele>
        <time>2021-06-01T20:03:25Z</time>
      </trkpt>
      <trkpt lat="45.10357" lon="2.6862">
        <ele>1611</ele>
        <time>2021-06-01T20:05:10Z</time>
      </trkpt>
      <trkpt lat="45.10427" lon="2.68371">
        <ele>1592</ele>
        <time>2021-06-01T20:07:41Z</time>
      </trkpt>
      <trkpt lat="45.10582" lon="2.68187">
        <ele>1577</ele>
        <time>2021-06-01T20:10:23Z</time>
      </trkpt>
      <trkpt lat="45.10682" lon="2.6805">
        <ele>1599</ele>
        <time>2021-06-01T20:12:15Z</time>
      </trkpt>
      <trkpt lat="45.10833" lon="2.67818">
        <ele>1685</ele>
        <time>2021-06-01T20:15:13Z</time>
      </trkpt>
      <trkpt lat="45.10912" lon="2.67702">
        <ele>1743</ele>
        <time>2021-06-01T20:16:44Z</time>
      </trkpt>
      <trkpt lat="45.10981" lon="2.67513">
        <ele>1716</ele>
        <time>2021-06-01T20:18:44Z</time>
      </trkpt>
      <trkpt lat="45.111" lon="2.6741">
        <ele>1661</ele>
        <time>2021-06-01T20:20:36Z</time>
      </trkpt>
      <trkpt lat="45.11263" lon="2.67303">
        <ele>1602</ele>
        <time>2021-06-01T20:23:00Z</time>
      </trkpt>
      <trkpt lat="45.11393" lon="2.67204">
        <ele>1576</ele>
        <time>2021-06-01T20:24:58Z</time>
      </trkpt>
      <trkpt lat="45.11554" lon="2.67054">
        <ele>1578</ele>
        <time>2021-06-01T20:27:32Z</time>
      </trkpt>
      <trkpt lat="45.11757" lon="2.66719">
        <ele>1566</ele>
        <time>2021-06-01T20:31:42Z</time>
      </trkpt>
      <trkpt lat="45.11938" lon="2.66818">
        <ele>1587</ele>
        <time>2021-06-01T20:34:17Z</time>
      </trkpt>
      <trkpt lat="45.12087" lon="2.66809">
        <ele>1577</ele>
        <time>2021-06-01T20:36:17Z</time>
      </trkpt>
      <trkpt lat="45.12253" lon="2.66977">
        <ele>1603</ele>
        <time>2021-06-01T20:39:00Z</time>
      </trkpt>
      <trkpt lat="45.12447" lon="2.66964">
        <ele>1594</ele>
        <time>2021-06-01T20:41:35Z</time>
      </trkpt>
      <trkpt lat="45.12605" lon="2.66968">
        <ele>1591</ele>
        <time>2021-06-01T20:43:42Z</time>
      </trkpt>
      <trkpt lat="45.12692" lon="2.67002">
        <ele>1578</ele>
        <time>2021-06-01T20:44:54Z</time>
      </trkpt>
      <trkpt lat="45.12765" lon="2.67217">
        <ele>1577</ele>
        <time>2021-06-01T20:47:09Z</time>
      </trkpt>
      <trkpt lat="45.12856" lon="2.67268">
        <ele>1555</ele>
        <time>2021-06-01T20:48:27Z</time>
      </trkpt>
      <trkpt lat="45.13162" lon="2.6726">
        <ele>1528</ele>
        <time>2021-06-01T20:52:32Z</time>
      </trkpt>
      <trkpt lat="45.13322" lon="2.67286">
        <ele>1532</ele>
        <time>2021-06-01T20:54:41Z</time>
      </trkpt>
      <trkpt lat="45.13525" lon="2.6726">
        <ele>1541</ele>
        <time>2021-06-01T20:57:25Z</time>
      </trkpt>
      <trkpt lat="45.1374" lon="2.6717">
        <ele>1518</ele>
        <time>2021-06-01T21:00:24Z</time>
      </trkpt>
      <trkpt lat="45.13922" lon="2.67024">
        <ele>1502</ele>
        <time>2021-06-01T21:03:11Z</time>
      </trkpt>
      <trkpt lat="45.1407" lon="2.66852">
        <ele>1503</ele>
        <time>2021-06-01T21:05:45Z</time>
      </trkpt>
      <trkpt lat="45.14236" lon="2.66822">
        <ele>1509</ele>
        <time>2021-06-01T21:07:59Z</time>
      </trkpt>
      <trkpt lat="45.14406" lon="2.66754">
        <ele>1502</ele>
        <time>2021-06-01T21:10:20Z</time>
      </trkpt>
      <trkpt lat="45.14597" lon="2.66715">
        <ele>1493</ele>
        <time>2021-06-01T21:12:55Z</time>
      </trkpt>
      <trkpt lat="45.14775" lon="2.66642">
        <ele>1500</ele>
        <time>2021-06-01T21:15:23Z</time>
      </trkpt>
      <trkpt lat="45.14936" lon="2.66509">
        <ele>1499</ele>
        <time>2021-06-01T21:17:52Z</time>
      </trkpt>
      <trkpt lat="45.15184" lon="2.66376">
        <ele>1528</ele>
        <time>2021-06-01T21:21:24Z</time>
      </trkpt>
      <trkpt lat="45.1522" lon="2.66243">
        <ele>1533</ele>
        <time>2021-06-01T21:22:45Z</time>
      </trkpt>
      <trkpt lat="45.15429" lon="2.6608">
        <ele>1524</ele>
        <time>2021-06-01T21:25:56Z</time>
      </trkpt>
      <trkpt lat="45.15614" lon="2.66028">
        <ele>1528</ele>
        <time>2021-06-01T21:28:27Z</time>
      </trkpt>
      <trkpt lat="45.15952" lon="2.66028">
        <ele>1533</ele>
        <time>2021-06-01T21:32:58Z</time>
      </trkpt>
      <trkpt lat="45.16249" lon="2.65844">
        <ele>1547</ele>
        <time>2021-06-01T21:37:17Z</time>
      </trkpt>
      <trkpt lat="45.1637" lon="2.65578">
        <ele>1540</ele>
        <time>2021-06-01T21:40:16Z</time>
      </trkpt>
      <trkpt lat="45.16394" lon="2.65307">
        <ele>1530</ele>
        <time>2021-06-01T21:42:50Z</time>
      </trkpt>
      <trkpt lat="45.16558" lon="2.65058">
        <ele>1487</ele>
        <time>2021-06-01T21:46:02Z</time>
      </trkpt>
      <trkpt lat="45.165" lon="2.6493">
        <ele>1470</ele>
        <time>2021-06-01T21:47:28Z</time>
      </trkpt>
      <trkpt lat="45.16503" lon="2.64801">
        <ele>1456</ele>
        <time>2021-06-01T21:48:41Z</time>
      </trkpt>
      <trkpt lat="45.16452" lon="2.64672">
        <ele>1448</ele>
        <time>2021-06-01T21:50:05Z</time>
      </trkpt>
      <trkpt lat="45.16461" lon="2.64526">
        <ele>1444</ele>
        <time>2021-06-01T21:51:27Z</time>
      </trkpt>
      <trkpt lat="45.16464" lon="2.6444">
        <ele>1445</ele>
        <time>2021-06-01T21:52:16Z</time>
      </trkpt>
      <trkpt lat="45.1634" lon="2.64397">
        <ele>1440</ele>
        <time>2021-06-01T21:53:58Z</time>
      </trkpt>
      <trkpt lat="45.16258" lon="2.64479">
        <ele>1426</ele>
        <time>2021-06-01T21:55:18Z</time>
      </trkpt>
      <trkpt lat="45.16264" lon="2.64423">
        <ele>1417</ele>
        <time>2021-06-01T21:55:50Z</time>
      </trkpt>
      <trkpt lat="45.1617" lon="2.64458">
        <ele>1390</ele>
        <time>2021-06-01T21:57:08Z</time>
      </trkpt>
      <trkpt lat="45.16092" lon="2.64548">
        <ele>1379</ele>
        <time>2021-06-01T21:58:29Z</time>
      </trkpt>
      <trkpt lat="45.16064" lon="2.64458">
        <ele>1354</ele>
        <time>2021-06-01T21:59:24Z</time>
      </trkpt>
      <trkpt lat="45.1601" lon="2.64509">
        <ele>1342</ele>
        <time>2021-06-01T22:00:16Z</time>
      </trkpt>
      <trkpt lat="45.15983" lon="2.64573">
        <ele>1336</ele>
        <time>2021-06-01T22:00:58Z</time>
      </trkpt>
      <trkpt lat="45.15913" lon="2.64582">
        <ele>1309</ele>
        <time>2021-06-01T22:01:55Z</time>
      </trkpt>
      <trkpt lat="45.15807" lon="2.64711">
        <ele>1288</ele>
        <time>2021-06-01T22:03:46Z</time>
      </trkpt>
      <trkpt lat="45.15844" lon="2.64561">
        <ele>1278</ele>
        <time>2021-06-01T22:05:16Z</time>
      </trkpt>
      <trkpt lat="45.1571" lon="2.64715">
        <ele>1258</ele>
        <time>2021-06-01T22:07:34Z</time>
      </trkpt>
      <trkpt lat="45.15707" lon="2.64582">
        <ele>1238</ele>
        <time>2021-06-01T22:08:49Z</time>
      </trkpt>
      <trkpt lat="45.15665" lon="2.64595">
        <ele>1229</ele>
        <time>2021-06-01T22:09:24Z</time>
      </trkpt>
      <trkpt lat="45.15638" lon="2.6444">
        <ele>1213</ele>
        <time>2021-06-01T22:10:54Z</time>
      </trkpt>
      <trkpt lat="45.15568" lon="2.64294">
        <ele>1191</ele>
        <time>2021-06-01T22:12:34Z</time>
      </trkpt>
      <trkpt lat="45.15614" lon="2.64136">
        <ele>1184</ele>
        <time>2021-06-01T22:14:10Z</time>
      </trkpt>
      <trkpt lat="45.15541" lon="2.64119">
        <ele>1158</ele>
        <time>2021-06-01T22:15:09Z</time>
      </trkpt>
      <trkpt lat="45.15511" lon="2.63994">
        <ele>1128</ele>
        <time>2021-06-01T22:16:24Z</time>
      </trkpt>
      <trkpt lat="45.15414" lon="2.6396">
        <ele>1103</ele>
        <time>2021-06-01T22:17:44Z</time>
      </trkpt>
      <trkpt lat="45.15547" lon="2.63844">
        <ele>1103</ele>
        <time>2021-06-01T22:19:49Z</time>
      </trkpt>
      <trkpt lat="45.15638" lon="2.63707">
        <ele>1096</ele>
        <time>2021-06-01T22:21:35Z</time>
      </trkpt>
      <trkpt lat="45.15535" lon="2.63535">
        <ele>1059</ele>
        <time>2021-06-01T22:23:43Z</time>
      </trkpt>
      <trkpt lat="45.15526" lon="2.63629">
        <ele>1060</ele>
        <time>2021-06-01T22:24:36Z</time>
      </trkpt>
      <trkpt lat="45.15477" lon="2.63406">
        <ele>1030</ele>
        <time>2021-06-01T22:26:48Z</time>
      </trkpt>
      <trkpt lat="45.15323" lon="2.63333">
        <ele>979</ele>
        <time>2021-06-01T22:28:58Z</time>
      </trkpt>
      <trkpt lat="45.15374" lon="2.63144">
        <ele>956</ele>
        <time>2021-06-01T22:30:52Z</time>
      </trkpt>
      <trkpt lat="45.15362" lon="2.63028">
        <ele>945</ele>
        <time>2021-06-01T22:31:59Z</time>
      </trkpt>
      <trkpt lat="45.15384" lon="2.62848">
        <ele>935</ele>
        <time>2021-06-01T22:33:42Z</time>
      </trkpt>
      <trkpt lat="45.15432" lon="2.62681">
        <ele>929</ele>
        <time>2021-06-01T22:35:24Z</time>
      </trkpt>
      <trkpt lat="45.15511" lon="2.62612">
        <ele>934</ele>
        <time>2021-06-01T22:36:38Z</time>
      </trkpt>
      <trkpt lat="45.15571" lon="2.6241">
        <ele>925</ele>
        <time>2021-06-01T22:38:42Z</time>
      </trkpt>
      <trkpt lat="45.15402" lon="2.62325">
        <ele>904</ele>
        <time>2021-06-01T22:41:05Z</time>
      </trkpt>
      <trkpt lat="45.15308" lon="2.62303">
        <ele>897</ele>
        <time>2021-06-01T22:42:21Z</time>
      </trkpt>
      <trkpt lat="45.15293" lon="2.62153">
        <ele>902</ele>
        <time>2021-06-01T22:43:47Z</time>
      </trkpt>
      <trkpt lat="45.15244" lon="2.6205">
        <ele>911</ele>
        <time>2021-06-01T22:44:57Z</time>
      </trkpt>
      <trkpt lat="45.15241" lon="2.61921">
        <ele>918</ele>
        <time>2021-06-01T22:46:10Z</time>
      </trkpt>
      <trkpt lat="45.15229" lon="2.61707">
        <ele>933</ele>
        <time>2021-06-01T22:48:11Z</time>
      </trkpt>
      <trkpt lat="45.15202" lon="2.61604">
        <ele>940</ele>
        <time>2021-06-01T22:49:13Z</time>
      </trkpt>
      <trkpt lat="45.15141" lon="2.61681">
        <ele>955</ele>
        <time>2021-06-01T22:50:19Z</time>
      </trkpt>
      <trkpt lat="45.15093" lon="2.61762">
        <ele>967</ele>
        <time>2021-06-01T22:51:18Z</time>
      </trkpt>
      <trkpt lat="45.15072" lon="2.61934">
        <ele>964</ele>
        <time>2021-06-01T22:52:57Z</time>
      </trkpt>
      <trkpt lat="45.15032" lon="2.62093">
        <ele>960</ele>
        <time>2021-06-01T22:54:32Z</time>
      </trkpt>
      <trkpt lat="45.1492" lon="2.62277">
        <ele>978</ele>
        <time>2021-06-01T22:56:50Z</time>
      </trkpt>
      <trkpt lat="45.14881" lon="2.62428">
        <ele>979</ele>
        <time>2021-06-01T22:58:20Z</time>
      </trkpt>
      <trkpt lat="45.1486" lon="2.62252">
        <ele>998</ele>
        <time>2021-06-01T23:00:01Z</time>
      </trkpt>
      <trkpt lat="45.14793" lon="2.62217">
        <ele>1009</ele>
        <time>2021-06-01T23:00:58Z</time>
      </trkpt>
      <trkpt lat="45.14736" lon="2.62179">
        <ele>1015</ele>
        <time>2021-06-01T23:01:49Z</time>
      </trkpt>
      <trkpt lat="45.14633" lon="2.62342">
        <ele>1053</ele>
        <time>2021-06-01T23:03:52Z</time>
      </trkpt>
      <trkpt lat="45.14603" lon="2.62453">
        <ele>1047</ele>
        <time>2021-06-01T23:04:59Z</time>
      </trkpt>
      <trkpt lat="45.14494" lon="2.62595">
        <ele>1065</ele>
        <time>2021-06-01T23:06:58Z</time>
      </trkpt>
      <trkpt lat="45.14427" lon="2.62728">
        <ele>1066</ele>
        <time>2021-06-01T23:08:30Z</time>
      </trkpt>
      <trkpt lat="45.14357" lon="2.62805">
        <ele>1076</ele>
        <time>2021-06-01T23:09:41Z</time>
      </trkpt>
      <trkpt lat="45.14221" lon="2.63041">
        <ele>1100</ele>
        <time>2021-06-01T23:12:33Z</time>
      </trkpt>
      <trkpt lat="45.14143" lon="2.63174">
        <ele>1109</ele>
        <time>2021-06-01T23:14:11Z</time>
      </trkpt>
      <trkpt lat="45.14088" lon="2.6305">
        <ele>1145</ele>
        <time>2021-06-01T23:15:34Z</time>
      </trkpt>
      <trkpt lat="45.14018" lon="2.63016">
        <ele>1178</ele>
        <time>2021-06-01T23:16:33Z</time>
      </trkpt>
      <trkpt lat="45.13767" lon="2.6308">
        <ele>1188</ele>
        <time>2021-06-01T23:19:57Z</time>
      </trkpt>
      <trkpt lat="45.14025" lon="2.62904">
        <ele>1218</ele>
        <time>2021-06-01T23:23:46Z</time>
      </trkpt>
      <trkpt lat="45.13979" lon="2.6284">
        <ele>1251</ele>
        <time>2021-06-01T23:24:38Z</time>
      </trkpt>
      <trkpt lat="45.13922" lon="2.62762">
        <ele>1286</ele>
        <time>2021-06-01T23:25:41Z</time>
      </trkpt>
      <trkpt lat="45.13906" lon="2.62677">
        <ele>1312</ele>
        <time>2021-06-01T23:26:31Z</time>
      </trkpt>
      <trkpt lat="45.13846" lon="2.62647">
        <ele>1325</ele>
        <time>2021-06-01T23:27:22Z</time>
      </trkpt>
      <trkpt lat="45.13785" lon="2.62586">
        <ele>1345</ele>
        <time>2021-06-01T23:28:22Z</time>
      </trkpt>
      <trkpt lat="45.13882" lon="2.62582">
        <ele>1341</ele>
        <time>2021-06-01T23:29:40Z</time>
      </trkpt>
      <trkpt lat="45.13985" lon="2.62299">
        <ele>1352</ele>
        <time>2021-06-01T23:32:39Z</time>
      </trkpt>
      <trkpt lat="45.13891" lon="2.62393">
        <ele>1350</ele>
        <time>2021-06-01T23:34:12Z</time>
      </trkpt>
      <trkpt lat="45.13828" lon="2.62406">
        <ele>1344</ele>
        <time>2021-06-01T23:35:03Z</time>
      </trkpt>
      <trkpt lat="45.13682" lon="2.62479">
        <ele>1332</ele>
        <time>2021-06-01T23:37:06Z</time>
      </trkpt>
      <trkpt lat="45.13622" lon="2.62479">
        <ele>1328</ele>
        <time>2021-06-01T23:37:55Z</time>
      </trkpt>
      <trkpt lat="45.13801" lon="2.62307">
        <ele>1323</ele>
        <time>2021-06-01T23:40:48Z</time>
      </trkpt>
      <trkpt lat="45.13773" lon="2.62213">
        <ele>1291</ele>
        <time>2021-06-01T23:41:45Z</time>
      </trkpt>
      <trkpt lat="45.13679" lon="2.62153">
        <ele>1270</ele>
        <time>2021-06-01T23:43:08Z</time>
      </trkpt>
      <trkpt lat="45.13682" lon="2.62007">
        <ele>1242</ele>
        <time>2021-06-01T23:44:30Z</time>
      </trkpt>
      <trkpt lat="45.13788" lon="2.61788">
        <ele>1222</ele>
        <time>2021-06-01T23:47:00Z</time>
      </trkpt>
      <trkpt lat="45.13858" lon="2.61488">
        <ele>1197</ele>
        <time>2021-06-01T23:49:59Z</time>
      </trkpt>
      <trkpt lat="45.13855" lon="2.61273">
        <ele>1187</ele>
        <time>2021-06-01T23:52:00Z</time>
      </trkpt>
      <trkpt lat="45.1381" lon="2.61063">
        <ele>1197</ele>
        <time>2021-06-01T23:54:04Z</time>
      </trkpt>
      <trkpt lat="45.13716" lon="2.60814">
        <ele>1222</ele>
        <time>2021-06-01T23:56:44Z</time>
      </trkpt>
      <trkpt lat="45.13643" lon="2.60587">
        <ele>1225</ele>
        <time>2021-06-01T23:59:05Z</time>
      </trkpt>
      <trkpt lat="45.13549" lon="2.60265">
        <ele>1217</ele>
        <time>2021-06-02T00:02:21Z</time>
      </trkpt>
      <trkpt lat="45.13216" lon="2.60243">
        <ele>1232</ele>
        <time>2021-06-02T00:06:48Z</time>
      </trkpt>
      <trkpt lat="45.13065" lon="2.60175">
        <ele>1237</ele>
        <time>2021-06-02T00:08:55Z</time>
      </trkpt>
      <trkpt lat="45.13089" lon="2.59973">
        <ele>1241</ele>
        <time>2021-06-02T00:10:51Z</time>
      </trkpt>
      <trkpt lat="45.13186" lon="2.59874">
        <ele>1233</ele>
        <time>2021-06-02T00:12:27Z</time>
      </trkpt>
      <trkpt lat="45.13389" lon="2.59604">
        <ele>1233</ele>
        <time>2021-06-02T00:16:10Z</time>
      </trkpt>
      <trkpt lat="45.13471" lon="2.59188">
        <ele>1245</ele>
        <time>2021-06-02T00:20:14Z</time>
      </trkpt>
      <trkpt lat="45.13586" lon="2.58947">
        <ele>1236</ele>
        <time>2021-06-02T00:22:58Z</time>
      </trkpt>
      <trkpt lat="45.13837" lon="2.589">
        <ele>1204</ele>
        <time>2021-06-02T00:26:21Z</time>
      </trkpt>
      <trkpt lat="45.13958" lon="2.58471">
        <ele>1194</ele>
        <time>2021-06-02T00:30:42Z</time>
      </trkpt>
      <trkpt lat="45.14094" lon="2.58218">
        <ele>1195</ele>
        <time>2021-06-02T00:33:41Z</time>
      </trkpt>
      <trkpt lat="45.14224" lon="2.58003">
        <ele>1210</ele>
        <time>2021-06-02T00:36:21Z</time>
      </trkpt>
      <trkpt lat="45.14137" lon="2.58012">
        <ele>1240</ele>
        <time>2021-06-02T00:37:31Z</time>
      </trkpt>
      <trkpt lat="45.14094" lon="2.5793">
        <ele>1248</ele>
        <time>2021-06-02T00:38:29Z</time>
      </trkpt>
      <trkpt lat="45.13943" lon="2.57964">
        <ele>1273</ele>
        <time>2021-06-02T00:40:31Z</time>
      </trkpt>
      <trkpt lat="45.13776" lon="2.57917">
        <ele>1297</ele>
        <time>2021-06-02T00:42:47Z</time>
      </trkpt>
      <trkpt lat="45.13561" lon="2.58033">
        <ele>1345</ele>
        <time>2021-06-02T00:45:52Z</time>
      </trkpt>
      <trkpt lat="45.13537" lon="2.58102">
        <ele>1355</ele>
        <time>2021-06-02T00:46:35Z</time>
      </trkpt>
      <trkpt lat="45.13443" lon="2.58072">
        <ele>1380</ele>
        <time>2021-06-02T00:47:52Z</time>
      </trkpt>
      <trkpt lat="45.13404" lon="2.58175">
        <ele>1408</ele>
        <time>2021-06-02T00:48:58Z</time>
      </trkpt>
      <trkpt lat="45.13289" lon="2.5814">
        <ele>1431</ele>
        <time>2021-06-02T00:50:32Z</time>
      </trkpt>
      <trkpt lat="45.13246" lon="2.58235">
        <ele>1452</ele>
        <time>2021-06-02T00:51:36Z</time>
      </trkpt>
      <trkpt lat="45.13171" lon="2.58175">
        <ele>1462</ele>
        <time>2021-06-02T00:52:45Z</time>
      </trkpt>
      <trkpt lat="45.13071" lon="2.58235">
        <ele>1479</ele>
        <time>2021-06-02T00:54:12Z</time>
      </trkpt>
      <trkpt lat="45.13083" lon="2.58664">
        <ele>1518</ele>
        <time>2021-06-02T00:58:15Z</time>
      </trkpt>
      <trkpt lat="45.12974" lon="2.58711">
        <ele>1532</ele>
        <time>2021-06-02T00:59:46Z</time>
      </trkpt>
      <trkpt lat="45.12907" lon="2.5887">
        <ele>1544</ele>
        <time>2021-06-02T01:01:30Z</time>
      </trkpt>
      <trkpt lat="45.12865" lon="2.59179">
        <ele>1508</ele>
        <time>2021-06-02T01:04:28Z</time>
      </trkpt>
      <trkpt lat="45.12741" lon="2.5926">
        <ele>1516</ele>
        <time>2021-06-02T01:06:17Z</time>
      </trkpt>
      <trkpt lat="45.12559" lon="2.59338">
        <ele>1509</ele>
        <time>2021-06-02T01:08:50Z</time>
      </trkpt>
      <trkpt lat="45.12447" lon="2.59428">
        <ele>1503</ele>
        <time>2021-06-02T01:10:33Z</time>
      </trkpt>
      <trkpt lat="45.11627" lon="2.59059">
        <ele>1344</ele>
        <time>2021-06-02T01:22:02Z</time>
      </trkpt>
      <trkpt lat="45.11602" lon="2.59205">
        <ele>1329</ele>
        <time>2021-06-02T01:23:27Z</time>
      </trkpt>
      <trkpt lat="45.11533" lon="2.59153">
        <ele>1311</ele>
        <time>2021-06-02T01:24:29Z</time>
      </trkpt>
      <trkpt lat="45.11518" lon="2.59226">
        <ele>1293</ele>
        <time>2021-06-02T01:25:12Z</time>
      </trkpt>
      <trkpt lat="45.11345" lon="2.5914">
        <ele>1237</ele>
        <time>2021-06-02T01:27:39Z</time>
      </trkpt>
      <trkpt lat="45.11218" lon="2.59063">
        <ele>1211</ele>
        <time>2021-06-02T01:29:29Z</time>
      </trkpt>
      <trkpt lat="45.11069" lon="2.589">
        <ele>1205</ele>
        <time>2021-06-02T01:32:00Z</time>
      </trkpt>
      <trkpt lat="45.11069" lon="2.58694">
        <ele>1215</ele>
        <time>2021-06-02T01:33:57Z</time>
      </trkpt>
      <trkpt lat="45.10957" lon="2.58763">
        <ele>1171</ele>
        <time>2021-06-02T01:35:34Z</time>
      </trkpt>
      <trkpt lat="45.1083" lon="2.58724">
        <ele>1148</ele>
        <time>2021-06-02T01:37:18Z</time>
      </trkpt>
      <trkpt lat="45.10782" lon="2.58754">
        <ele>1132</ele>
        <time>2021-06-02T01:38:00Z</time>
      </trkpt>
      <trkpt lat="45.10657" lon="2.58788">
        <ele>1102</ele>
        <time>2021-06-02T01:39:42Z</time>
      </trkpt>
      <trkpt lat="45.10521" lon="2.58694">
        <ele>1090</ele>
        <time>2021-06-02T01:41:44Z</time>
      </trkpt>
      <trkpt lat="45.1046" lon="2.58535">
        <ele>1090</ele>
        <time>2021-06-02T01:43:26Z</time>
      </trkpt>
      <trkpt lat="45.10424" lon="2.58385">
        <ele>1078</ele>
        <time>2021-06-02T01:44:55Z</time>
      </trkpt>
      <trkpt lat="45.10436" lon="2.58303">
        <ele>1075</ele>
        <time>2021-06-02T01:45:43Z</time>
      </trkpt>
      <trkpt lat="45.10357" lon="2.58334">
        <ele>1054</ele>
        <time>2021-06-02T01:46:48Z</time>
      </trkpt>
      <trkpt lat="45.103" lon="2.58467">
        <ele>1039</ele>
        <time>2021-06-02T01:48:16Z</time>
      </trkpt>
      <trkpt lat="45.10248" lon="2.58505">
        <ele>1023</ele>
        <time>2021-06-02T01:49:03Z</time>
      </trkpt>
      <trkpt lat="45.10167" lon="2.58376">
        <ele>992</ele>
        <time>2021-06-02T01:50:41Z</time>
      </trkpt>
      <trkpt lat="45.10176" lon="2.58591">
        <ele>991</ele>
        <time>2021-06-02T01:52:42Z</time>
      </trkpt>
      <trkpt lat="45.10224" lon="2.58827">
        <ele>973</ele>
        <time>2021-06-02T01:55:01Z</time>
      </trkpt>
      <trkpt lat="45.10318" lon="2.5902">
        <ele>959</ele>
        <time>2021-06-02T01:57:14Z</time>
      </trkpt>
      <trkpt lat="45.10285" lon="2.59145">
        <ele>942</ele>
        <time>2021-06-02T01:58:29Z</time>
      </trkpt>
      <trkpt lat="45.102" lon="2.59235">
        <ele>938</ele>
        <time>2021-06-02T01:59:54Z</time>
      </trkpt>
      <trkpt lat="45.10209" lon="2.59321">
        <ele>938</ele>
        <time>2021-06-02T02:00:43Z</time>
      </trkpt>
      <trkpt lat="45.10277" lon="2.59433">
        <ele>942</ele>
        <time>2021-06-02T02:02:07Z</time>
      </trkpt>
    </trkseg>
  </trk>
</gpx>